createdAt,value
2018-02-23T00:00:39.476Z,16.44
2018-02-23T00:01:39.493Z,16.43
2018-02-23T00:02:39.486Z,16.42
2018-02-23T00:03:39.503Z,16.44
2018-02-23T00:04:39.488Z,16.43
2018-02-23T00:05:39.482Z,16.42
2018-02-23T00:06:39.488Z,16.43
2018-02-23T00:07:39.563Z,16.4
2018-02-23T00:08:39.505Z,16.4
2018-02-23T00:09:39.475Z,16.41
2018-02-23T00:10:39.480Z,16.41
2018-02-23T00:11:39.462Z,16.39
2018-02-23T00:12:39.479Z,16.39
2018-02-23T00:13:39.509Z,16.37
2018-02-23T00:14:39.486Z,16.36
2018-02-23T00:15:39.476Z,16.36
2018-02-23T00:16:39.702Z,16.34
2018-02-23T00:17:39.486Z,16.36
2018-02-23T00:18:39.620Z,16.35
2018-02-23T00:19:39.466Z,16.35
2018-02-23T00:20:39.489Z,16.33
2018-02-23T00:21:39.462Z,16.35
2018-02-23T00:22:39.453Z,16.34
2018-02-23T00:23:39.469Z,16.33
2018-02-23T00:24:39.470Z,16.32
2018-02-23T00:25:39.455Z,16.32
2018-02-23T00:26:39.466Z,16.31
2018-02-23T00:27:39.471Z,16.33
2018-02-23T00:28:39.495Z,16.33
2018-02-23T00:29:39.482Z,16.32
2018-02-23T00:30:39.459Z,16.31
2018-02-23T00:31:39.455Z,16.31
2018-02-23T00:32:39.460Z,16.29
2018-02-23T00:33:39.485Z,16.3
2018-02-23T00:34:39.466Z,16.29
2018-02-23T00:35:39.476Z,16.29
2018-02-23T00:36:39.497Z,16.27
2018-02-23T00:37:39.449Z,16.3
2018-02-23T00:38:39.469Z,16.28
2018-02-23T00:39:39.459Z,16.28
2018-02-23T00:40:39.461Z,16.27
2018-02-23T00:41:39.540Z,16.26
2018-02-23T00:42:39.523Z,16.26
2018-02-23T00:43:39.482Z,16.27
2018-02-23T00:44:39.449Z,16.25
2018-02-23T00:45:39.467Z,16.26
2018-02-23T00:46:39.460Z,16.26
2018-02-23T00:47:39.467Z,16.22
2018-02-23T00:48:39.468Z,16.22
2018-02-23T00:49:39.461Z,16.22
2018-02-23T00:50:39.452Z,16.25
2018-02-23T00:51:39.493Z,16.22
2018-02-23T00:52:39.471Z,16.22
2018-02-23T00:53:39.464Z,16.22
2018-02-23T00:54:39.443Z,16.22
2018-02-23T00:55:39.450Z,16.2
2018-02-23T00:56:39.441Z,16.21
2018-02-23T00:57:39.462Z,16.21
2018-02-23T00:58:39.448Z,16.19
2018-02-23T00:59:39.503Z,16.18
2018-02-23T01:00:39.461Z,16.2
2018-02-23T01:01:39.473Z,16.18
2018-02-23T01:02:39.458Z,16.19
2018-02-23T01:03:39.465Z,16.18
2018-02-23T01:04:39.453Z,16.18
2018-02-23T01:05:39.532Z,16.17
2018-02-23T01:06:39.543Z,16.16
2018-02-23T01:07:39.466Z,16.16
2018-02-23T01:08:39.438Z,16.16
2018-02-23T01:09:39.459Z,16.14
2018-02-23T01:10:39.457Z,16.16
2018-02-23T01:11:39.475Z,16.13
2018-02-23T01:12:39.430Z,16.14
2018-02-23T01:13:39.445Z,16.14
2018-02-23T01:14:39.454Z,16.11
2018-02-23T01:15:39.469Z,16.11
2018-02-23T01:16:39.487Z,16.11
2018-02-23T01:17:39.432Z,16.12
2018-02-23T01:18:39.456Z,16.12
2018-02-23T01:19:39.453Z,16.11
2018-02-23T01:20:39.442Z,16.08
2018-02-23T01:21:39.469Z,16.11
2018-02-23T01:22:39.539Z,16.1
2018-02-23T01:23:39.455Z,16.12
2018-02-23T01:24:39.440Z,16.11
2018-02-23T01:25:39.428Z,16.1
2018-02-23T01:26:39.478Z,16.08
2018-02-23T01:27:39.440Z,16.07
2018-02-23T01:28:39.450Z,16.08
2018-02-23T01:29:39.441Z,16.06
2018-02-23T01:30:39.557Z,16.06
2018-02-23T01:31:39.448Z,16.05
2018-02-23T01:32:39.432Z,16.04
2018-02-23T01:33:39.435Z,16.05
2018-02-23T01:34:39.439Z,16.07
2018-02-23T01:35:39.542Z,16.05
2018-02-23T01:36:39.452Z,16.05
2018-02-23T01:37:39.444Z,16.05
2018-02-23T01:38:39.555Z,16.04
2018-02-23T01:39:39.425Z,16.03
2018-02-23T01:40:39.453Z,16.05
2018-02-23T01:41:39.499Z,16.04
2018-02-23T01:42:39.430Z,16.02
2018-02-23T01:43:39.431Z,16.02
2018-02-23T01:44:39.448Z,16
2018-02-23T01:45:39.466Z,16
2018-02-23T01:46:39.552Z,16
2018-02-23T01:47:39.425Z,16
2018-02-23T01:48:39.440Z,15.99
2018-02-23T01:49:39.443Z,15.98
2018-02-23T01:50:39.432Z,16
2018-02-23T01:51:39.500Z,16.01
2018-02-23T01:52:39.436Z,15.99
2018-02-23T01:53:39.434Z,15.99
2018-02-23T01:54:39.526Z,15.99
2018-02-23T01:55:39.432Z,15.97
2018-02-23T01:56:39.438Z,15.97
2018-02-23T01:57:39.435Z,15.96
2018-02-23T01:58:39.429Z,15.97
2018-02-23T01:59:39.500Z,15.96
2018-02-23T02:00:39.449Z,15.97
2018-02-23T02:01:39.440Z,15.96
2018-02-23T02:02:39.434Z,15.95
2018-02-23T02:03:39.452Z,15.99
2018-02-23T02:04:39.431Z,15.96
2018-02-23T02:05:39.440Z,15.96
2018-02-23T02:06:39.473Z,15.95
2018-02-23T02:07:39.441Z,15.91
2018-02-23T02:08:39.443Z,15.96
2018-02-23T02:09:39.428Z,15.93
2018-02-23T02:10:39.433Z,15.95
2018-02-23T02:11:39.437Z,15.91
2018-02-23T02:12:39.433Z,15.92
2018-02-23T02:13:39.419Z,15.91
2018-02-23T02:14:39.414Z,15.91
2018-02-23T02:15:39.707Z,15.91
2018-02-23T02:16:39.431Z,15.9
2018-02-23T02:17:39.413Z,15.9
2018-02-23T02:18:39.435Z,15.9
2018-02-23T02:19:39.421Z,15.91
2018-02-23T02:20:39.441Z,15.9
2018-02-23T02:21:39.467Z,15.9
2018-02-23T02:22:39.422Z,15.9
2018-02-23T02:23:39.433Z,15.9
2018-02-23T02:24:39.423Z,15.88
2018-02-23T02:25:39.431Z,15.87
2018-02-23T02:26:39.419Z,15.88
2018-02-23T02:27:39.423Z,15.88
2018-02-23T02:28:39.419Z,15.9
2018-02-23T02:29:39.424Z,15.89
2018-02-23T02:30:39.431Z,15.91
2018-02-23T02:31:39.470Z,15.88
2018-02-23T02:32:39.428Z,15.87
2018-02-23T02:33:39.452Z,15.88
2018-02-23T02:34:39.418Z,15.83
2018-02-23T02:35:39.445Z,15.88
2018-02-23T02:36:39.477Z,15.86
2018-02-23T02:37:39.424Z,15.83
2018-02-23T02:38:39.417Z,15.84
2018-02-23T02:39:39.431Z,15.85
2018-02-23T02:40:39.439Z,15.84
2018-02-23T02:41:39.431Z,15.83
2018-02-23T02:42:39.449Z,15.83
2018-02-23T02:43:39.442Z,15.83
2018-02-23T02:44:39.401Z,15.84
2018-02-23T02:45:39.426Z,15.84
2018-02-23T02:46:42.869Z,15.84
2018-02-23T02:47:39.430Z,15.82
2018-02-23T02:48:39.418Z,15.83
2018-02-23T02:49:39.422Z,15.83
2018-02-23T02:50:39.425Z,15.83
2018-02-23T02:51:39.416Z,15.82
2018-02-23T02:52:39.421Z,15.81
2018-02-23T02:53:39.419Z,15.82
2018-02-23T02:54:39.438Z,15.8
2018-02-23T02:55:39.412Z,15.78
2018-02-23T02:56:39.687Z,15.81
2018-02-23T02:57:39.418Z,15.77
2018-02-23T02:58:39.453Z,15.77
2018-02-23T02:59:39.436Z,15.77
2018-02-23T03:00:39.411Z,15.77
2018-02-23T03:01:39.434Z,15.77
2018-02-23T03:02:39.454Z,15.78
2018-02-23T03:03:39.419Z,15.8
2018-02-23T03:04:39.414Z,15.78
2018-02-23T03:05:39.430Z,15.77
2018-02-23T03:06:39.505Z,15.77
2018-02-23T03:07:39.435Z,15.76
2018-02-23T03:08:39.428Z,15.75
2018-02-23T03:09:39.430Z,15.75
2018-02-23T03:10:39.452Z,15.76
2018-02-23T03:11:39.428Z,15.74
2018-02-23T03:12:41.403Z,15.75
2018-02-23T03:13:39.407Z,15.74
2018-02-23T03:14:39.432Z,15.73
2018-02-23T03:15:39.427Z,15.74
2018-02-23T03:16:39.394Z,15.75
2018-02-23T03:17:39.429Z,15.72
2018-02-23T03:18:39.409Z,15.75
2018-02-23T03:19:39.409Z,15.73
2018-02-23T03:20:39.400Z,15.71
2018-02-23T03:21:39.410Z,15.72
2018-02-23T03:22:39.405Z,15.74
2018-02-23T03:23:39.399Z,15.75
2018-02-23T03:24:39.460Z,15.73
2018-02-23T03:25:39.387Z,15.72
2018-02-23T03:26:39.421Z,15.72
2018-02-23T03:27:39.410Z,15.7
2018-02-23T03:28:39.674Z,15.71
2018-02-23T03:29:39.423Z,15.69
2018-02-23T03:30:39.425Z,15.72
2018-02-23T03:31:39.418Z,15.71
2018-02-23T03:32:39.412Z,15.68
2018-02-23T03:33:39.421Z,15.68
2018-02-23T03:34:41.853Z,15.67
2018-02-23T03:35:39.390Z,15.69
2018-02-23T03:36:39.403Z,15.69
2018-02-23T03:37:39.419Z,15.68
2018-02-23T03:38:39.453Z,15.68
2018-02-23T03:39:39.406Z,15.68
2018-02-23T03:40:39.402Z,15.67
2018-02-23T03:41:39.397Z,15.68
2018-02-23T03:42:39.409Z,15.69
2018-02-23T03:43:39.396Z,15.67
2018-02-23T03:44:39.387Z,15.67
2018-02-23T03:45:39.395Z,15.68
2018-02-23T03:46:39.391Z,15.67
2018-02-23T03:47:39.387Z,15.65
2018-02-23T03:48:39.395Z,15.66
2018-02-23T03:49:39.416Z,15.66
2018-02-23T03:50:39.406Z,15.65
2018-02-23T03:51:39.401Z,15.63
2018-02-23T03:52:39.396Z,15.63
2018-02-23T03:53:39.398Z,15.62
2018-02-23T03:54:39.402Z,15.65
2018-02-23T03:55:39.402Z,15.66
2018-02-23T03:56:39.624Z,15.65
2018-02-23T03:57:39.385Z,15.63
2018-02-23T03:58:39.399Z,15.62
2018-02-23T03:59:39.406Z,15.62
2018-02-23T04:00:39.393Z,15.62
2018-02-23T04:01:39.451Z,15.6
2018-02-23T04:02:39.404Z,15.62
2018-02-23T04:03:39.390Z,15.61
2018-02-23T04:04:39.378Z,15.61
2018-02-23T04:05:39.402Z,15.6
2018-02-23T04:06:39.386Z,15.6
2018-02-23T04:07:39.394Z,15.61
2018-02-23T04:08:39.399Z,15.6
2018-02-23T04:09:39.387Z,15.59
2018-02-23T04:10:39.434Z,15.59
2018-02-23T04:11:39.395Z,15.6
2018-02-23T04:12:39.382Z,15.61
2018-02-23T04:13:39.382Z,15.6
2018-02-23T04:14:39.389Z,15.61
2018-02-23T04:15:39.393Z,15.58
2018-02-23T04:16:39.375Z,15.6
2018-02-23T04:17:39.391Z,15.6
2018-02-23T04:18:39.403Z,15.6
2018-02-23T04:19:39.391Z,15.61
2018-02-23T04:20:39.384Z,15.59
2018-02-23T04:21:39.386Z,15.58
2018-02-23T04:22:39.402Z,15.57
2018-02-23T04:23:39.383Z,15.58
2018-02-23T04:24:39.391Z,15.58
2018-02-23T04:25:39.397Z,15.58
2018-02-23T04:26:39.389Z,15.57
2018-02-23T04:27:39.389Z,15.58
2018-02-23T04:28:39.381Z,15.57
2018-02-23T04:29:39.389Z,15.55
2018-02-23T04:30:39.393Z,15.57
2018-02-23T04:31:39.381Z,15.56
2018-02-23T04:32:39.377Z,15.56
2018-02-23T04:33:39.367Z,15.55
2018-02-23T04:34:39.394Z,15.53
2018-02-23T04:35:39.382Z,15.54
2018-02-23T04:36:39.385Z,15.53
2018-02-23T04:37:39.385Z,15.54
2018-02-23T04:38:39.376Z,15.54
2018-02-23T04:39:39.379Z,15.54
2018-02-23T04:40:39.383Z,15.51
2018-02-23T04:41:39.385Z,15.54
2018-02-23T04:42:39.364Z,15.55
2018-02-23T04:43:39.371Z,15.54
2018-02-23T04:44:39.371Z,15.53
2018-02-23T04:45:39.363Z,15.52
2018-02-23T04:46:39.380Z,15.53
2018-02-23T04:47:39.376Z,15.54
2018-02-23T04:48:39.372Z,15.53
2018-02-23T04:49:39.374Z,15.51
2018-02-23T04:50:39.378Z,15.53
2018-02-23T04:51:39.374Z,15.54
2018-02-23T04:52:39.408Z,15.53
2018-02-23T04:53:39.384Z,15.54
2018-02-23T04:54:39.363Z,15.54
2018-02-23T04:55:39.375Z,15.53
2018-02-23T04:56:39.375Z,15.55
2018-02-23T04:57:39.366Z,15.56
2018-02-23T04:58:39.369Z,15.56
2018-02-23T04:59:39.394Z,15.56
2018-02-23T05:00:39.373Z,15.56
2018-02-23T05:01:39.368Z,15.57
2018-02-23T05:02:39.364Z,15.56
2018-02-23T05:03:39.382Z,15.56
2018-02-23T05:04:39.401Z,15.57
2018-02-23T05:05:39.378Z,15.55
2018-02-23T05:06:39.363Z,15.57
2018-02-23T05:07:39.463Z,15.56
2018-02-23T05:08:39.404Z,15.57
2018-02-23T05:09:39.386Z,15.59
2018-02-23T05:10:39.370Z,15.58
2018-02-23T05:11:39.354Z,15.62
2018-02-23T05:12:39.368Z,15.63
2018-02-23T05:13:39.379Z,15.6
2018-02-23T05:14:39.393Z,15.63
2018-02-23T05:15:39.377Z,15.63
2018-02-23T05:16:39.357Z,15.65
2018-02-23T05:17:39.360Z,15.67
2018-02-23T05:18:39.360Z,15.68
2018-02-23T05:19:39.387Z,15.7
2018-02-23T05:20:39.366Z,15.7
2018-02-23T05:21:39.386Z,15.7
2018-02-23T05:22:39.378Z,15.73
2018-02-23T05:23:39.368Z,15.73
2018-02-23T05:24:39.361Z,15.72
2018-02-23T05:25:39.366Z,15.75
2018-02-23T05:26:39.371Z,15.77
2018-02-23T05:27:39.394Z,15.77
2018-02-23T05:28:39.366Z,15.8
2018-02-23T05:29:39.352Z,15.82
2018-02-23T05:30:39.387Z,15.82
2018-02-23T05:31:39.365Z,15.84
2018-02-23T05:32:39.382Z,15.87
2018-02-23T05:33:39.366Z,15.88
2018-02-23T05:34:39.355Z,15.89
2018-02-23T05:35:39.362Z,15.91
2018-02-23T05:36:39.350Z,15.96
2018-02-23T05:37:39.359Z,15.97
2018-02-23T05:38:39.349Z,16
2018-02-23T05:39:39.359Z,16.01
2018-02-23T05:40:39.388Z,16.01
2018-02-23T05:41:39.412Z,16.03
2018-02-23T05:42:39.624Z,16.06
2018-02-23T05:43:39.349Z,16.06
2018-02-23T05:44:39.353Z,16.1
2018-02-23T05:45:39.351Z,16.14
2018-02-23T05:46:39.348Z,16.13
2018-02-23T05:47:39.356Z,16.17
2018-02-23T05:48:39.356Z,16.17
2018-02-23T05:49:39.357Z,16.19
2018-02-23T05:50:39.644Z,16.2
2018-02-23T05:51:39.353Z,16.22
2018-02-23T05:52:39.359Z,16.24
2018-02-23T05:53:39.336Z,16.26
2018-02-23T05:54:39.346Z,16.28
2018-02-23T05:55:39.359Z,16.28
2018-02-23T05:56:39.363Z,16.3
2018-02-23T05:57:39.355Z,16.3
2018-02-23T05:58:39.352Z,16.33
2018-02-23T05:59:39.353Z,16.33
2018-02-23T06:00:39.364Z,16.35
2018-02-23T06:01:39.348Z,16.39
2018-02-23T06:02:39.355Z,16.37
2018-02-23T06:03:39.349Z,16.4
2018-02-23T06:04:39.343Z,16.39
2018-02-23T06:05:39.361Z,16.4
2018-02-23T06:06:39.360Z,16.43
2018-02-23T06:07:39.354Z,16.45
2018-02-23T06:08:39.351Z,16.46
2018-02-23T06:09:39.373Z,16.47
2018-02-23T06:10:39.352Z,16.5
2018-02-23T06:11:39.331Z,16.49
2018-02-23T06:12:39.633Z,16.51
2018-02-23T06:13:39.361Z,16.52
2018-02-23T06:14:39.346Z,16.56
2018-02-23T06:15:39.346Z,16.55
2018-02-23T06:16:39.346Z,16.58
2018-02-23T06:17:39.371Z,16.59
2018-02-23T06:18:39.343Z,16.59
2018-02-23T06:19:39.348Z,16.6
2018-02-23T06:20:39.341Z,16.6
2018-02-23T06:21:39.344Z,16.62
2018-02-23T06:22:39.364Z,16.63
2018-02-23T06:23:39.327Z,16.63
2018-02-23T06:24:39.337Z,16.66
2018-02-23T06:25:39.352Z,16.65
2018-02-23T06:26:39.351Z,16.66
2018-02-23T06:27:39.349Z,16.66
2018-02-23T06:28:39.345Z,16.66
2018-02-23T06:29:39.330Z,16.7
2018-02-23T06:30:39.349Z,16.72
2018-02-23T06:31:39.361Z,16.72
2018-02-23T06:32:39.337Z,16.73
2018-02-23T06:33:39.380Z,16.73
2018-02-23T06:34:39.346Z,16.74
2018-02-23T06:35:39.342Z,16.77
2018-02-23T06:36:39.338Z,16.77
2018-02-23T06:37:39.333Z,16.77
2018-02-23T06:38:39.354Z,16.78
2018-02-23T06:39:39.370Z,16.79
2018-02-23T06:40:39.339Z,16.78
2018-02-23T06:41:39.352Z,16.82
2018-02-23T06:42:39.332Z,16.82
2018-02-23T06:43:39.361Z,16.82
2018-02-23T06:44:39.431Z,16.86
2018-02-23T06:45:39.331Z,16.85
2018-02-23T06:46:39.347Z,16.85
2018-02-23T06:47:39.334Z,16.87
2018-02-23T06:48:39.359Z,16.88
2018-02-23T06:49:39.342Z,16.88
2018-02-23T06:50:39.325Z,16.9
2018-02-23T06:51:39.360Z,16.9
2018-02-23T06:52:39.333Z,16.91
2018-02-23T06:53:39.345Z,16.93
2018-02-23T06:54:39.322Z,16.93
2018-02-23T06:55:39.326Z,16.93
2018-02-23T06:56:39.354Z,16.94
2018-02-23T06:57:39.329Z,16.95
2018-02-23T06:58:39.349Z,16.95
2018-02-23T06:59:39.345Z,16.96
2018-02-23T07:00:39.323Z,16.98
2018-02-23T07:01:39.330Z,16.98
2018-02-23T07:02:39.335Z,17.01
2018-02-23T07:03:39.344Z,17.02
2018-02-23T07:04:39.356Z,17
2018-02-23T07:05:39.328Z,17
2018-02-23T07:06:39.333Z,17.01
2018-02-23T07:07:39.336Z,17.01
2018-02-23T07:08:39.428Z,17
2018-02-23T07:09:39.380Z,17.04
2018-02-23T07:10:39.362Z,17
2018-02-23T07:11:39.343Z,17.02
2018-02-23T07:12:41.554Z,17.03
2018-02-23T07:13:39.346Z,17.03
2018-02-23T07:14:39.343Z,17.04
2018-02-23T07:15:39.339Z,17.02
2018-02-23T07:16:39.347Z,17.02
2018-02-23T07:17:39.345Z,17.02
2018-02-23T07:18:39.358Z,17.03
2018-02-23T07:19:39.356Z,17.03
2018-02-23T07:20:39.354Z,17.04
2018-02-23T07:21:39.350Z,17.02
2018-02-23T07:22:41.803Z,17.02
2018-02-23T07:23:39.350Z,17.02
2018-02-23T07:24:42.206Z,17.03
2018-02-23T07:25:39.364Z,17.02
2018-02-23T07:26:41.793Z,17.03
2018-02-23T07:27:39.371Z,17.04
2018-02-23T07:28:39.351Z,17.05
2018-02-23T07:29:41.941Z,17.03
2018-02-23T07:30:41.812Z,17.03
2018-02-23T07:31:39.408Z,17.04
2018-02-23T07:32:41.792Z,17.03
2018-02-23T07:33:41.450Z,17.04
2018-02-23T07:34:41.812Z,17.04
2018-02-23T07:35:42.204Z,17.03
2018-02-23T07:36:41.552Z,17.04
2018-02-23T07:37:41.697Z,17.06
2018-02-23T07:38:41.934Z,17.06
2018-02-23T07:39:41.544Z,17.06
2018-02-23T07:40:41.953Z,17.06
2018-02-23T07:41:39.361Z,17.06
2018-02-23T07:42:41.934Z,17.06
2018-02-23T07:43:39.365Z,17.08
2018-02-23T07:44:41.944Z,17.08
2018-02-23T07:45:41.953Z,17.07
2018-02-23T07:46:41.789Z,17.09
2018-02-23T07:47:41.941Z,17.1
2018-02-23T07:48:41.936Z,17.11
2018-02-23T07:49:41.934Z,17.11
2018-02-23T07:50:41.949Z,17.13
2018-02-23T07:51:39.361Z,17.15
2018-02-23T07:52:42.194Z,17.14
2018-02-23T07:53:41.932Z,17.13
2018-02-23T07:54:41.936Z,17.16
2018-02-23T07:55:39.907Z,17.16
2018-02-23T07:56:39.371Z,17.17
2018-02-23T07:57:41.944Z,17.17
2018-02-23T07:58:39.369Z,17.18
2018-02-23T07:59:41.938Z,17.19
2018-02-23T08:00:41.436Z,17.19
2018-02-23T08:01:41.965Z,17.21
2018-02-23T08:02:39.381Z,17.19
2018-02-23T08:03:41.467Z,17.18
2018-02-23T08:04:39.363Z,17.19
2018-02-23T08:05:41.936Z,17.19
2018-02-23T08:06:41.963Z,17.22
2018-02-23T08:07:41.969Z,17.23
2018-02-23T08:08:41.939Z,17.23
2018-02-23T08:09:39.357Z,17.22
2018-02-23T08:10:39.905Z,17.24
2018-02-23T08:11:39.552Z,17.22
2018-02-23T08:12:41.464Z,17.23
2018-02-23T08:13:39.366Z,17.23
2018-02-23T08:14:39.467Z,17.21
2018-02-23T08:15:39.910Z,17.23
2018-02-23T08:16:39.368Z,17.23
2018-02-23T08:17:41.923Z,17.23
2018-02-23T08:18:39.348Z,17.22
2018-02-23T08:19:41.673Z,17.23
2018-02-23T08:20:39.369Z,17.2
2018-02-23T08:21:39.377Z,17.21
2018-02-23T08:22:39.375Z,17.2
2018-02-23T08:23:39.401Z,17.19
2018-02-23T08:24:39.370Z,17.21
2018-02-23T08:25:39.374Z,17.21
2018-02-23T08:26:39.383Z,17.21
2018-02-23T08:27:39.402Z,17.19
2018-02-23T08:28:39.369Z,17.19
2018-02-23T08:29:39.381Z,17.19
2018-02-23T08:30:39.355Z,17.19
2018-02-23T08:31:39.397Z,17.17
2018-02-23T08:32:41.443Z,17.19
2018-02-23T08:33:39.922Z,17.18
2018-02-23T08:34:39.393Z,17.18
2018-02-23T08:35:39.358Z,17.16
2018-02-23T08:36:39.360Z,17.17
2018-02-23T08:37:39.393Z,17.18
2018-02-23T08:38:39.383Z,17.17
2018-02-23T08:39:39.403Z,17.18
2018-02-23T08:40:39.850Z,17.16
2018-02-23T08:41:39.855Z,17.17
2018-02-23T08:42:39.340Z,17.16
2018-02-23T08:43:39.957Z,17.16
2018-02-23T08:44:39.938Z,17.13
2018-02-23T08:45:39.340Z,17.14
2018-02-23T08:46:39.547Z,17.16
2018-02-23T08:47:39.407Z,17.13
2018-02-23T08:48:39.341Z,17.1
2018-02-23T08:49:39.370Z,17.11
2018-02-23T08:50:39.342Z,17.11
2018-02-23T08:51:39.375Z,17.09
2018-02-23T08:52:39.403Z,17.11
2018-02-23T08:53:39.940Z,17.09
2018-02-23T08:54:39.342Z,17.09
2018-02-23T08:55:39.932Z,17.09
2018-02-23T08:56:39.350Z,17.07
2018-02-23T08:57:39.373Z,17.08
2018-02-23T08:58:39.370Z,17.07
2018-02-23T08:59:39.944Z,17.08
2018-02-23T09:00:39.534Z,17.06
2018-02-23T09:01:39.350Z,17.07
2018-02-23T09:02:39.373Z,17.07
2018-02-23T09:03:39.378Z,17.06
2018-02-23T09:04:39.357Z,17.08
2018-02-23T09:05:39.358Z,17.04
2018-02-23T09:06:39.848Z,17.07
2018-02-23T09:07:39.385Z,17.04
2018-02-23T09:08:39.371Z,17.03
2018-02-23T09:09:42.028Z,17.06
2018-02-23T09:10:39.390Z,17.03
2018-02-23T09:11:39.540Z,17.05
2018-02-23T09:12:39.392Z,17.03
2018-02-23T09:13:39.360Z,17.03
2018-02-23T09:14:39.516Z,17.05
2018-02-23T09:15:39.849Z,17.04
2018-02-23T09:16:39.359Z,17.04
2018-02-23T09:17:39.362Z,17.03
2018-02-23T09:18:39.975Z,17.01
2018-02-23T09:19:39.341Z,17.02
2018-02-23T09:20:39.359Z,17.03
2018-02-23T09:21:39.340Z,17.03
2018-02-23T09:22:39.857Z,17.01
2018-02-23T09:23:39.454Z,17.03
2018-02-23T09:24:39.581Z,17.03
2018-02-23T09:25:39.345Z,17.01
2018-02-23T09:26:39.368Z,17.03
2018-02-23T09:27:39.346Z,17.03
2018-02-23T09:28:39.372Z,17.02
2018-02-23T09:29:39.348Z,17.02
2018-02-23T09:30:39.345Z,17.03
2018-02-23T09:31:39.352Z,17.03
2018-02-23T09:32:39.347Z,17.03
2018-02-23T09:33:39.889Z,17.02
2018-02-23T09:34:39.837Z,17.04
2018-02-23T09:35:39.859Z,17.03
2018-02-23T09:36:39.352Z,17.02
2018-02-23T09:37:39.353Z,17.05
2018-02-23T09:38:39.356Z,17.02
2018-02-23T09:39:39.356Z,17.04
2018-02-23T09:40:39.352Z,17.02
2018-02-23T09:41:39.329Z,17.04
2018-02-23T09:42:39.331Z,17.03
2018-02-23T09:43:39.345Z,17.01
2018-02-23T09:44:39.921Z,17.04
2018-02-23T09:45:39.359Z,17.04
2018-02-23T09:46:39.898Z,17.05
2018-02-23T09:47:39.892Z,17.04
2018-02-23T09:48:39.337Z,17.04
2018-02-23T09:49:39.360Z,17.05
2018-02-23T09:50:39.547Z,17.05
2018-02-23T09:51:39.365Z,17.05
2018-02-23T09:52:39.338Z,17.06
2018-02-23T09:53:39.359Z,17.06
2018-02-23T09:54:39.855Z,17.07
2018-02-23T09:55:39.388Z,17.05
2018-02-23T09:56:39.550Z,17.07
2018-02-23T09:57:39.578Z,17.05
2018-02-23T09:58:39.805Z,17.06
2018-02-23T09:59:39.343Z,17.07
2018-02-23T10:00:39.926Z,17.06
2018-02-23T10:01:39.342Z,17.07
2018-02-23T10:02:39.351Z,17.05
2018-02-23T10:03:39.346Z,17.08
2018-02-23T10:04:39.304Z,17.05
2018-02-23T10:05:41.550Z,17.08
2018-02-23T10:06:39.301Z,17.05
2018-02-23T10:07:39.306Z,17.07
2018-02-23T10:08:39.304Z,17.07
2018-02-23T10:09:39.344Z,17.08
2018-02-23T10:10:39.950Z,17.07
2018-02-23T10:11:39.352Z,17.08
2018-02-23T10:12:39.348Z,17.07
2018-02-23T10:13:39.934Z,17.06
2018-02-23T10:14:39.354Z,17.07
2018-02-23T10:15:39.356Z,17.07
2018-02-23T10:16:39.296Z,17.09
2018-02-23T10:17:39.297Z,17.08
2018-02-23T10:18:39.312Z,17.08
2018-02-23T10:19:39.291Z,17.07
2018-02-23T10:20:39.314Z,17.09
2018-02-23T10:21:39.313Z,17.1
2018-02-23T10:22:39.352Z,17.1
2018-02-23T10:23:39.315Z,17.08
2018-02-23T10:24:39.302Z,17.09
2018-02-23T10:25:39.312Z,17.09
2018-02-23T10:26:39.502Z,17.09
2018-02-23T10:27:39.313Z,17.1
2018-02-23T10:28:39.787Z,17.08
2018-02-23T10:29:39.300Z,17.1
2018-02-23T10:30:39.296Z,17.1
2018-02-23T10:31:39.395Z,17.11
2018-02-23T10:32:39.607Z,17.11
2018-02-23T10:33:39.317Z,17.1
2018-02-23T10:34:39.316Z,17.07
2018-02-23T10:35:39.271Z,17.1
2018-02-23T10:36:39.920Z,17.09
2018-02-23T10:37:39.371Z,17.09
2018-02-23T10:38:39.364Z,17.09
2018-02-23T10:39:39.877Z,17.1
2018-02-23T10:40:39.313Z,17.08
2018-02-23T10:41:39.324Z,17.09
2018-02-23T10:42:39.290Z,17.08
2018-02-23T10:43:39.376Z,17.09
2018-02-23T10:44:39.323Z,17.1
2018-02-23T10:45:39.310Z,17.1
2018-02-23T10:46:39.292Z,17.09
2018-02-23T10:47:39.300Z,17.08
2018-02-23T10:48:39.330Z,17.09
2018-02-23T10:49:39.335Z,17.1
2018-02-23T10:50:39.271Z,17.08
2018-02-23T10:51:39.310Z,17.09
2018-02-23T10:52:39.319Z,17.09
2018-02-23T10:53:39.284Z,17.1
2018-02-23T10:54:39.312Z,17.07
2018-02-23T10:55:39.383Z,17.09
2018-02-23T10:56:39.303Z,17.08
2018-02-23T10:57:39.319Z,17.09
2018-02-23T10:58:39.312Z,17.09
2018-02-23T10:59:39.325Z,17.09
2018-02-23T11:00:39.314Z,17.11
2018-02-23T11:01:39.279Z,17.11
2018-02-23T11:02:39.301Z,17.11
2018-02-23T11:03:39.299Z,17.09
2018-02-23T11:04:39.303Z,17.08
2018-02-23T11:05:39.306Z,17.08
2018-02-23T11:06:39.322Z,17.1
2018-02-23T11:07:39.306Z,17.1
2018-02-23T11:08:39.300Z,17.1
2018-02-23T11:09:39.438Z,17.11
2018-02-23T11:10:39.420Z,17.11
2018-02-23T11:11:39.341Z,17.07
2018-02-23T11:12:39.277Z,17.09
2018-02-23T11:13:39.284Z,17.08
2018-02-23T11:14:39.327Z,17.1
2018-02-23T11:15:39.292Z,17.1
2018-02-23T11:16:39.279Z,17.11
2018-02-23T11:17:39.278Z,17.09
2018-02-23T11:18:39.350Z,17.1
2018-02-23T11:19:39.539Z,17.11
2018-02-23T11:20:39.290Z,17.08
2018-02-23T11:21:39.307Z,17.09
2018-02-23T11:22:39.306Z,17.09
2018-02-23T11:23:39.302Z,17.11
2018-02-23T11:24:39.330Z,17.13
2018-02-23T11:25:39.307Z,17.11
2018-02-23T11:26:39.309Z,17.1
2018-02-23T11:27:39.271Z,17.11
2018-02-23T11:28:39.274Z,17.1
2018-02-23T11:29:39.338Z,17.1
2018-02-23T11:30:39.301Z,17.09
2018-02-23T11:31:39.293Z,17.11
2018-02-23T11:32:39.300Z,17.08
2018-02-23T11:33:39.316Z,17.1
2018-02-23T11:34:39.437Z,17.1
2018-02-23T11:35:39.289Z,17.11
2018-02-23T11:36:39.295Z,17.1
2018-02-23T11:37:39.317Z,17.08
2018-02-23T11:38:39.292Z,17.11
2018-02-23T11:39:39.300Z,17.09
2018-02-23T11:40:39.322Z,17.1
2018-02-23T11:41:39.283Z,17.11
2018-02-23T11:42:39.285Z,17.1
2018-02-23T11:43:39.285Z,17.09
2018-02-23T11:44:39.291Z,17.11
2018-02-23T11:45:39.303Z,17.1
2018-02-23T11:46:39.296Z,17.11
2018-02-23T11:47:39.279Z,17.11
2018-02-23T11:48:39.293Z,17.11
2018-02-23T11:49:40.243Z,17.1
2018-02-23T11:50:39.316Z,17.1
2018-02-23T11:51:39.266Z,17.11
2018-02-23T11:52:39.284Z,17.11
2018-02-23T11:53:39.252Z,17.13
2018-02-23T11:54:39.288Z,17.11
2018-02-23T11:55:39.644Z,17.13
2018-02-23T11:56:39.281Z,17.1
2018-02-23T11:57:39.271Z,17.13
2018-02-23T11:58:39.285Z,17.11
2018-02-23T11:59:39.248Z,17.14
2018-02-23T12:00:39.254Z,17.11
2018-02-23T12:01:39.268Z,17.11
2018-02-23T12:02:39.258Z,17.11
2018-02-23T12:03:39.257Z,17.13
2018-02-23T12:04:40.186Z,17.13
2018-02-23T12:05:41.870Z,17.11
2018-02-23T12:06:39.281Z,17.13
2018-02-23T12:07:39.272Z,17.14
2018-02-23T12:08:39.288Z,17.13
2018-02-23T12:09:39.278Z,17.13
2018-02-23T12:10:39.287Z,17.13
2018-02-23T12:11:39.269Z,17.14
2018-02-23T12:12:39.255Z,17.16
2018-02-23T12:13:39.262Z,17.14
2018-02-23T12:14:39.261Z,17.14
2018-02-23T12:15:39.295Z,17.15
2018-02-23T12:16:39.274Z,17.13
2018-02-23T12:17:39.279Z,17.15
2018-02-23T12:18:39.283Z,17.14
2018-02-23T12:19:40.152Z,17.14
2018-02-23T12:20:39.556Z,17.15
2018-02-23T12:21:39.259Z,17.13
2018-02-23T12:22:39.275Z,17.16
2018-02-23T12:23:39.217Z,17.14
2018-02-23T12:24:39.256Z,17.15
2018-02-23T12:25:39.289Z,17.13
2018-02-23T12:26:42.388Z,17.16
2018-02-23T12:27:39.251Z,17.15
2018-02-23T12:28:39.230Z,17.15
2018-02-23T12:29:39.256Z,17.16
2018-02-23T12:30:39.272Z,17.15
2018-02-23T12:31:39.304Z,17.15
2018-02-23T12:32:39.265Z,17.16
2018-02-23T12:33:39.260Z,17.16
2018-02-23T12:34:39.280Z,17.17
2018-02-23T12:35:39.272Z,17.16
2018-02-23T12:36:39.251Z,17.15
2018-02-23T12:37:39.283Z,17.16
2018-02-23T12:38:39.246Z,17.16
2018-02-23T12:39:39.297Z,17.14
2018-02-23T12:40:39.253Z,17.18
2018-02-23T12:41:39.206Z,17.16
2018-02-23T12:42:39.267Z,17.16
2018-02-23T12:43:39.255Z,17.15
2018-02-23T12:44:39.522Z,17.17
2018-02-23T12:45:39.192Z,17.18
2018-02-23T12:46:39.255Z,17.18
2018-02-23T12:47:39.303Z,17.16
2018-02-23T12:48:39.272Z,17.16
2018-02-23T12:49:39.272Z,17.15
2018-02-23T12:50:39.238Z,17.17
2018-02-23T12:51:39.201Z,17.17
2018-02-23T12:52:39.205Z,17.17
2018-02-23T12:53:39.313Z,17.17
2018-02-23T12:54:39.192Z,17.19
2018-02-23T12:55:39.247Z,17.18
2018-02-23T12:56:39.194Z,17.17